createdAt,value
2022-12-29T00:01:02.657Z,8.10
2022-12-29T00:03:30.907Z,8.10
2022-12-29T00:06:01.922Z,8.10
2022-12-29T00:08:40.830Z,8.10
2022-12-29T00:11:09.697Z,8.10
2022-12-29T00:13:55.280Z,8.10
2022-12-29T00:16:23.380Z,8.10
2022-12-29T00:18:52.446Z,8.10
2022-12-29T00:21:41.549Z,8.20
2022-12-29T00:24:42.973Z,8.20
2022-12-29T00:27:32.607Z,8.20
2022-12-29T00:30:19.074Z,8.20
2022-12-29T00:33:19.255Z,8.10
2022-12-29T00:35:50.277Z,8.20
2022-12-29T00:38:37.762Z,8.20
2022-12-29T00:41:23.438Z,8.20
2022-12-29T00:44:11.236Z,8.20
2022-12-29T00:46:40.996Z,8.20
2022-12-29T00:49:27.946Z,8.30
2022-12-29T00:51:56.394Z,8.30
2022-12-29T00:54:26.129Z,8.30
2022-12-29T00:56:54.779Z,8.30
2022-12-29T00:59:25.041Z,8.30
2022-12-29T01:01:54.545Z,8.30
2022-12-29T01:04:23.846Z,8.40
2022-12-29T01:06:52.601Z,8.40
2022-12-29T01:09:38.690Z,8.40
2022-12-29T01:12:09.512Z,8.40
2022-12-29T01:14:38.525Z,8.40
2022-12-29T01:17:07.209Z,8.30
2022-12-29T01:19:35.571Z,8.30
2022-12-29T01:22:03.971Z,8.30
2022-12-29T01:24:32.044Z,8.30
2022-12-29T01:27:00.065Z,8.40
2022-12-29T01:29:29.506Z,8.40
2022-12-29T01:31:57.582Z,8.40
2022-12-29T01:34:25.666Z,8.40
2022-12-29T01:36:53.680Z,8.40
2022-12-29T01:39:21.862Z,8.40
2022-12-29T01:41:49.894Z,8.50
2022-12-29T01:44:57.529Z,8.50
2022-12-29T01:47:33.058Z,8.60
2022-12-29T01:50:06.798Z,8.60
2022-12-29T01:52:37.321Z,8.60
2022-12-29T01:55:07.712Z,8.60
2022-12-29T01:57:38.761Z,8.60
2022-12-29T02:00:10.321Z,8.60
2022-12-29T02:02:41.061Z,8.70
2022-12-29T02:05:16.090Z,8.70
2022-12-29T02:07:46.959Z,8.70
2022-12-29T02:10:15.567Z,8.70
2022-12-29T02:12:43.772Z,8.70
2022-12-29T02:15:12.092Z,8.70
2022-12-29T02:18:02.423Z,8.70
2022-12-29T02:20:59.365Z,8.80
2022-12-29T02:24:07.936Z,8.80
2022-12-29T02:26:51.936Z,8.90
2022-12-29T02:29:54.758Z,9.10
2022-12-29T02:32:32.064Z,9.10
2022-12-29T02:35:08.852Z,9.20
2022-12-29T02:37:44.565Z,9.30
2022-12-29T02:40:25.930Z,9.30
2022-12-29T02:43:04.270Z,9.40
2022-12-29T02:45:37.957Z,9.40
2022-12-29T02:48:17.013Z,9.40
2022-12-29T02:50:53.023Z,9.30
2022-12-29T02:53:43.102Z,9.30
2022-12-29T02:56:10.234Z,9.30
2022-12-29T02:58:38.360Z,9.20
2022-12-29T03:01:22.263Z,9.30
2022-12-29T03:04:05.290Z,9.30
2022-12-29T03:06:40.811Z,9.30
2022-12-29T03:09:19.474Z,9.30
2022-12-29T03:12:10.568Z,9.30
2022-12-29T03:15:11.340Z,9.40
2022-12-29T03:17:49.250Z,9.40
2022-12-29T03:20:24.468Z,9.40
2022-12-29T03:22:54.964Z,9.40
2022-12-29T03:25:29.190Z,9.40
2022-12-29T03:28:00.623Z,9.40
2022-12-29T03:30:30.250Z,9.40
2022-12-29T03:33:01.843Z,9.40
2022-12-29T03:35:34.738Z,9.40
2022-12-29T03:38:12.052Z,9.40
2022-12-29T03:40:43.023Z,9.40
2022-12-29T03:43:11.928Z,9.40
2022-12-29T03:45:40.046Z,9.40
2022-12-29T03:48:08.128Z,9.40
2022-12-29T03:50:37.587Z,9.40
2022-12-29T03:53:05.802Z,9.40
2022-12-29T03:55:33.841Z,9.40
2022-12-29T03:58:01.914Z,9.40
2022-12-29T04:00:30.568Z,9.30
2022-12-29T04:02:59.023Z,9.30
2022-12-29T04:05:27.508Z,9.40
2022-12-29T04:07:56.981Z,9.30
2022-12-29T04:10:25.059Z,9.40
2022-12-29T04:12:53.152Z,9.40
2022-12-29T04:15:21.196Z,9.50
2022-12-29T04:17:49.259Z,9.40
2022-12-29T04:20:35.080Z,9.40
2022-12-29T04:23:05.009Z,9.40
2022-12-29T04:25:33.262Z,9.40
2022-12-29T04:28:01.584Z,9.40
2022-12-29T04:30:29.703Z,9.40
2022-12-29T04:32:57.757Z,9.40
2022-12-29T04:35:25.801Z,9.40
2022-12-29T04:37:53.874Z,9.40
2022-12-29T04:40:24.229Z,9.40
2022-12-29T04:42:52.888Z,9.40
2022-12-29T04:45:20.977Z,9.40
2022-12-29T04:47:49.095Z,9.40
2022-12-29T04:50:17.251Z,9.40
2022-12-29T04:52:46.178Z,9.40
2022-12-29T04:55:14.226Z,9.40
2022-12-29T04:57:44.156Z,9.40
2022-12-29T05:00:14.679Z,9.40
2022-12-29T05:02:44.184Z,9.40
2022-12-29T05:05:12.582Z,9.40
2022-12-29T05:07:40.852Z,9.40
2022-12-29T05:10:10.398Z,9.40
2022-12-29T05:12:39.576Z,9.40
2022-12-29T05:15:10.942Z,9.40
2022-12-29T05:17:39.075Z,9.40
2022-12-29T05:20:08.769Z,9.40
2022-12-29T05:22:36.865Z,9.40
2022-12-29T05:25:05.657Z,9.40
2022-12-29T05:27:33.733Z,9.40
2022-12-29T05:30:01.900Z,9.30
2022-12-29T05:32:31.344Z,9.40
2022-12-29T05:34:59.373Z,9.40
2022-12-29T05:37:27.425Z,9.40
2022-12-29T05:39:55.477Z,9.30
2022-12-29T05:42:23.634Z,9.30
2022-12-29T05:44:54.792Z,9.30
2022-12-29T05:47:22.952Z,9.30
2022-12-29T05:49:52.647Z,9.30
2022-12-29T05:52:20.731Z,9.30
2022-12-29T05:54:48.775Z,9.30
2022-12-29T05:57:16.865Z,9.30
2022-12-29T05:59:45.071Z,9.30
2022-12-29T06:02:13.322Z,9.30
2022-12-29T06:04:42.229Z,9.30
2022-12-29T06:07:11.666Z,9.30
2022-12-29T06:09:39.706Z,9.30
2022-12-29T06:12:08.303Z,9.30
2022-12-29T06:14:36.360Z,9.30
2022-12-29T06:17:04.520Z,9.30
2022-12-29T06:19:32.554Z,9.30
2022-12-29T06:22:00.660Z,9.30
2022-12-29T06:24:30.141Z,9.30
2022-12-29T06:26:58.175Z,9.40
2022-12-29T06:29:26.245Z,9.30
2022-12-29T06:31:57.245Z,9.30
2022-12-29T06:34:25.445Z,9.30
2022-12-29T06:36:53.942Z,9.20
2022-12-29T06:39:22.034Z,9.20
2022-12-29T06:41:54.241Z,9.20
2022-12-29T06:44:22.451Z,9.20
2022-12-29T06:46:50.946Z,9.30
2022-12-29T06:49:19.261Z,9.20
2022-12-29T06:51:47.470Z,9.20
2022-12-29T06:54:15.557Z,9.20
2022-12-29T06:56:43.610Z,9.20
2022-12-29T06:59:13.193Z,9.20
2022-12-29T07:01:41.373Z,9.20
2022-12-29T07:04:09.505Z,9.20
2022-12-29T07:06:37.863Z,9.30
2022-12-29T07:09:05.969Z,9.40
2022-12-29T07:11:34.305Z,9.40
2022-12-29T07:14:02.442Z,9.40
2022-12-29T07:16:32.101Z,9.30
2022-12-29T07:19:00.915Z,9.30
2022-12-29T07:21:28.930Z,9.40
2022-12-29T07:23:57.148Z,9.40
2022-12-29T07:26:25.320Z,9.40
2022-12-29T07:28:53.456Z,9.40
2022-12-29T07:31:23.502Z,9.40
2022-12-29T07:33:53.000Z,9.40
2022-12-29T07:36:21.043Z,9.40
2022-12-29T07:38:49.123Z,9.40
2022-12-29T07:41:17.300Z,9.40
2022-12-29T07:43:48.486Z,9.40
2022-12-29T07:46:55.075Z,9.40
2022-12-29T07:49:06.155Z,9.50
2022-12-29T07:51:34.203Z,9.40
2022-12-29T07:54:02.285Z,9.50
2022-12-29T07:56:30.554Z,9.50
2022-12-29T07:58:58.645Z,9.50
2022-12-29T08:01:26.779Z,9.50
2022-12-29T08:03:57.443Z,9.50
2022-12-29T08:06:27.221Z,9.50
2022-12-29T08:08:57.239Z,9.40
2022-12-29T08:11:26.193Z,9.50
2022-12-29T08:13:54.243Z,9.50
2022-12-29T08:16:22.438Z,9.50
2022-12-29T08:18:50.603Z,9.50
2022-12-29T08:21:18.917Z,9.50
2022-12-29T08:23:49.776Z,9.50
2022-12-29T08:26:17.858Z,9.50
2022-12-29T08:28:46.785Z,9.50
2022-12-29T08:31:14.948Z,9.60
2022-12-29T08:33:43.069Z,9.70
2022-12-29T08:36:11.723Z,9.60
2022-12-29T08:38:39.758Z,9.70
2022-12-29T08:41:09.259Z,9.70
2022-12-29T08:43:37.339Z,9.70
2022-12-29T08:46:06.025Z,9.80
2022-12-29T08:48:34.087Z,9.80
2022-12-29T08:51:02.299Z,9.80
2022-12-29T08:53:30.354Z,9.80
2022-12-29T08:56:04.591Z,9.90
2022-12-29T08:58:34.757Z,9.80
2022-12-29T09:01:02.903Z,9.70
2022-12-29T09:04:04.384Z,9.70
2022-12-29T09:06:19.995Z,9.70
2022-12-29T09:08:48.037Z,9.70
2022-12-29T09:11:18.873Z,9.70
2022-12-29T09:13:48.521Z,9.70
2022-12-29T09:16:17.416Z,9.70
2022-12-29T09:18:46.453Z,9.80
2022-12-29T09:21:15.653Z,9.70
2022-12-29T09:23:43.759Z,9.80
2022-12-29T09:26:12.174Z,9.80
2022-12-29T09:28:41.228Z,9.80
2022-12-29T09:31:10.793Z,9.80
2022-12-29T09:33:39.098Z,9.80
2022-12-29T09:36:07.634Z,9.90
2022-12-29T09:38:35.665Z,9.90
2022-12-29T09:41:12.902Z,9.90
2022-12-29T09:44:05.325Z,9.90
2022-12-29T09:46:40.047Z,9.80
2022-12-29T09:49:21.495Z,9.80
2022-12-29T09:51:53.038Z,9.70
2022-12-29T09:54:51.501Z,9.80
2022-12-29T09:57:26.841Z,10.00
2022-12-29T09:59:59.283Z,10.00
2022-12-29T10:02:36.835Z,10.00
2022-12-29T10:05:05.646Z,10.00
2022-12-29T10:07:45.031Z,10.00
2022-12-29T10:10:25.205Z,10.10
2022-12-29T10:13:03.785Z,10.10
2022-12-29T10:15:43.336Z,10.10
2022-12-29T10:18:27.224Z,10.20
2022-12-29T10:21:01.375Z,10.30
2022-12-29T10:23:33.568Z,10.30
2022-12-29T10:26:04.874Z,10.30
2022-12-29T10:28:40.906Z,10.30
2022-12-29T10:31:15.939Z,10.30
2022-12-29T10:33:45.935Z,10.30
2022-12-29T10:36:20.198Z,10.30
2022-12-29T10:39:08.009Z,10.30
2022-12-29T10:41:42.051Z,10.30
2022-12-29T10:44:15.604Z,10.30
2022-12-29T10:46:45.075Z,10.40
2022-12-29T10:49:22.003Z,10.30
2022-12-29T10:51:53.451Z,10.30
2022-12-29T10:54:27.193Z,10.30
2022-12-29T10:56:59.891Z,10.40
2022-12-29T10:59:31.198Z,10.30
2022-12-29T11:02:14.674Z,10.30
2022-12-29T11:04:55.086Z,10.40
2022-12-29T11:07:27.445Z,10.40
2022-12-29T11:09:56.270Z,10.50
2022-12-29T11:12:27.084Z,10.50
2022-12-29T11:15:15.856Z,10.50
2022-12-29T11:17:49.163Z,10.50
2022-12-29T11:20:31.888Z,10.50
2022-12-29T11:23:00.824Z,10.50
2022-12-29T11:25:29.100Z,10.60
2022-12-29T11:27:58.584Z,10.50
2022-12-29T11:30:29.148Z,10.50
2022-12-29T11:32:58.019Z,10.50
2022-12-29T11:35:36.805Z,10.50
2022-12-29T11:38:06.151Z,10.50
2022-12-29T11:40:39.707Z,10.50
2022-12-29T11:43:08.989Z,10.50
2022-12-29T11:45:38.301Z,10.50
2022-12-29T11:48:11.057Z,10.60
2022-12-29T11:50:42.777Z,10.50
2022-12-29T11:53:19.199Z,10.50
2022-12-29T11:55:54.912Z,10.50
2022-12-29T11:58:23.090Z,10.50
2022-12-29T12:00:52.063Z,10.50
2022-12-29T12:03:23.256Z,10.50
2022-12-29T12:05:56.504Z,10.50
2022-12-29T12:08:35.590Z,10.50
2022-12-29T12:11:09.015Z,10.50
2022-12-29T12:13:41.751Z,10.40
2022-12-29T12:16:15.047Z,10.40
2022-12-29T12:18:49.871Z,10.30
2022-12-29T12:21:32.666Z,10.30
2022-12-29T12:24:22.455Z,10.40
2022-12-29T12:26:58.561Z,10.30
2022-12-29T12:29:30.862Z,10.40
2022-12-29T12:32:03.658Z,10.30
2022-12-29T12:34:41.574Z,10.30
2022-12-29T12:37:25.444Z,10.30
2022-12-29T12:40:13.690Z,10.30
2022-12-29T12:42:53.047Z,10.30
2022-12-29T12:45:41.751Z,10.30
2022-12-29T12:48:28.225Z,10.40
2022-12-29T12:51:02.416Z,10.50
2022-12-29T12:53:43.701Z,10.50
2022-12-29T12:56:50.614Z,10.50
2022-12-29T12:59:36.201Z,10.50
2022-12-29T13:02:17.871Z,10.50
2022-12-29T13:05:03.284Z,10.60
2022-12-29T13:07:44.716Z,10.50
2022-12-29T13:10:28.054Z,10.50
2022-12-29T13:13:11.783Z,10.40
2022-12-29T13:15:49.922Z,10.40
2022-12-29T13:18:26.090Z,10.40
2022-12-29T13:21:00.674Z,10.40
2022-12-29T13:23:36.838Z,10.40
2022-12-29T13:26:13.541Z,10.40
2022-12-29T13:28:51.976Z,10.50
2022-12-29T13:31:30.725Z,10.40
2022-12-29T13:34:05.570Z,10.50
2022-12-29T13:36:39.476Z,10.40
2022-12-29T13:39:18.950Z,10.40
2022-12-29T13:41:53.187Z,10.30
2022-12-29T13:44:25.836Z,10.30
2022-12-29T13:46:55.959Z,10.30
2022-12-29T13:49:25.983Z,10.30
2022-12-29T13:51:57.185Z,10.30
2022-12-29T13:54:37.539Z,10.30
2022-12-29T13:57:12.880Z,10.20
2022-12-29T13:59:49.301Z,10.30
2022-12-29T14:02:29.039Z,10.30
2022-12-29T14:05:03.241Z,10.30
2022-12-29T14:07:37.660Z,10.30
2022-12-29T14:10:06.782Z,10.30
2022-12-29T14:12:40.103Z,10.20
2022-12-29T14:15:21.014Z,10.30
2022-12-29T14:18:05.728Z,10.20
2022-12-29T14:20:34.862Z,10.30
2022-12-29T14:23:17.873Z,10.30
2022-12-29T14:26:16.053Z,10.30
2022-12-29T14:28:47.076Z,10.30
2022-12-29T14:31:41.933Z,10.30
2022-12-29T14:34:31.048Z,10.30
2022-12-29T14:37:00.720Z,10.30
2022-12-29T14:39:41.298Z,10.20
2022-12-29T14:42:14.827Z,10.20
2022-12-29T14:44:51.451Z,10.20
2022-12-29T14:47:24.719Z,10.20
2022-12-29T14:49:54.292Z,10.20
2022-12-29T14:52:25.698Z,10.10
2022-12-29T14:54:56.008Z,10.20
2022-12-29T14:57:29.891Z,10.10
2022-12-29T15:00:03.810Z,9.90
2022-12-29T15:02:39.428Z,9.90
2022-12-29T15:05:25.102Z,10.00
2022-12-29T15:07:54.274Z,9.90
2022-12-29T15:10:23.970Z,9.80
2022-12-29T15:12:55.532Z,9.80
2022-12-29T15:15:27.233Z,9.80
2022-12-29T15:17:55.872Z,9.70
2022-12-29T15:20:28.322Z,9.70
2022-12-29T15:22:59.177Z,9.70
2022-12-29T15:25:28.414Z,9.70
2022-12-29T15:28:01.898Z,9.70
2022-12-29T15:30:31.428Z,9.60
2022-12-29T15:32:59.770Z,9.60
2022-12-29T15:35:33.684Z,9.60
2022-12-29T15:38:04.302Z,9.50
2022-12-29T15:40:34.051Z,9.50
2022-12-29T15:43:26.232Z,9.50
2022-12-29T15:45:57.043Z,9.40
2022-12-29T15:48:27.210Z,9.30
2022-12-29T15:50:55.317Z,9.20
2022-12-29T15:53:29.319Z,9.20
2022-12-29T15:56:03.219Z,9.10
2022-12-29T15:58:41.674Z,9.20
2022-12-29T16:01:20.053Z,9.20
2022-12-29T16:03:49.086Z,9.30
2022-12-29T16:06:32.678Z,9.20
2022-12-29T16:09:06.309Z,9.30
2022-12-29T16:11:37.861Z,9.30
2022-12-29T16:14:10.623Z,9.20
2022-12-29T16:16:42.986Z,9.20
2022-12-29T16:19:16.581Z,9.20
2022-12-29T16:21:45.799Z,9.20
2022-12-29T16:24:17.829Z,9.10
2022-12-29T16:26:51.042Z,9.10
2022-12-29T16:29:21.251Z,9.00
2022-12-29T16:32:01.519Z,9.00
2022-12-29T16:34:32.796Z,8.90
2022-12-29T16:37:02.225Z,8.90
2022-12-29T16:39:33.888Z,8.80
2022-12-29T16:42:02.563Z,8.80
2022-12-29T16:44:32.477Z,8.80
2022-12-29T16:47:22.235Z,8.80
2022-12-29T16:50:08.799Z,8.80
2022-12-29T16:52:37.198Z,8.90
2022-12-29T16:55:06.169Z,8.90
2022-12-29T16:57:38.485Z,8.80
2022-12-29T17:00:10.244Z,8.80
2022-12-29T17:02:45.923Z,8.90
2022-12-29T17:05:15.859Z,8.90
2022-12-29T17:07:44.128Z,9.00
2022-12-29T17:10:13.417Z,8.90
2022-12-29T17:12:42.773Z,8.90
2022-12-29T17:15:17.320Z,8.90
2022-12-29T17:17:48.653Z,8.90
2022-12-29T17:20:21.605Z,8.80
2022-12-29T17:22:51.281Z,8.80
2022-12-29T17:25:21.987Z,8.80
2022-12-29T17:27:54.391Z,8.80
2022-12-29T17:30:29.705Z,8.80
2022-12-29T17:33:05.755Z,8.80
2022-12-29T17:35:34.028Z,8.80
2022-12-29T17:38:02.426Z,8.80
2022-12-29T17:40:34.443Z,8.80
2022-12-29T17:43:02.648Z,8.90
2022-12-29T17:45:32.724Z,8.90
2022-12-29T17:48:02.415Z,8.90
2022-12-29T17:50:32.697Z,8.90
2022-12-29T17:53:03.980Z,8.90
2022-12-29T17:55:37.511Z,8.90
2022-12-29T17:58:18.094Z,8.80
2022-12-29T18:00:47.327Z,8.70
2022-12-29T18:03:19.002Z,8.70
2022-12-29T18:05:47.205Z,8.70
2022-12-29T18:08:15.230Z,8.60
2022-12-29T18:10:43.578Z,8.50
2022-12-29T18:13:20.803Z,8.40
2022-12-29T18:15:49.091Z,8.50
2022-12-29T18:18:20.648Z,8.40
2022-12-29T18:20:50.566Z,8.40
2022-12-29T18:23:21.620Z,8.40
2022-12-29T18:25:53.542Z,8.40
2022-12-29T18:28:21.796Z,8.40
2022-12-29T18:30:50.134Z,8.30
2022-12-29T18:33:24.109Z,8.30
2022-12-29T18:35:57.525Z,8.30
2022-12-29T18:38:25.660Z,8.30
2022-12-29T18:40:54.048Z,8.30
2022-12-29T18:43:22.607Z,8.40
2022-12-29T18:45:51.099Z,8.40
2022-12-29T18:48:21.718Z,8.30
2022-12-29T18:50:51.755Z,8.30
2022-12-29T18:53:21.687Z,8.30
2022-12-29T18:55:49.752Z,8.30
2022-12-29T18:58:17.869Z,8.30
2022-12-29T19:00:46.243Z,8.20
2022-12-29T19:03:16.747Z,8.10
2022-12-29T19:05:47.489Z,8.10
2022-12-29T19:08:15.688Z,8.00
2022-12-29T19:10:45.311Z,7.90
2022-12-29T19:13:18.558Z,7.80
2022-12-29T19:15:47.547Z,7.60
2022-12-29T19:21:09.665Z,7.50
2022-12-29T19:23:37.800Z,7.40
2022-12-29T19:26:06.115Z,7.40
2022-12-29T19:28:34.258Z,7.30
2022-12-29T19:31:04.502Z,7.30
2022-12-29T19:33:32.587Z,7.30
2022-12-29T19:36:01.977Z,7.20
2022-12-29T19:38:31.511Z,7.20
2022-12-29T19:40:59.684Z,7.20
2022-12-29T19:43:27.933Z,7.20
2022-12-29T19:45:56.024Z,7.10
2022-12-29T19:48:24.099Z,7.00
2022-12-29T19:50:52.149Z,7.00
2022-12-29T19:53:20.893Z,6.90
2022-12-29T19:55:50.308Z,6.90
2022-12-29T19:58:18.373Z,6.90
2022-12-29T20:00:46.479Z,6.90
2022-12-29T20:03:14.627Z,6.80
2022-12-29T20:05:42.836Z,6.80
2022-12-29T20:08:10.888Z,6.80
2022-12-29T20:10:39.012Z,6.80
2022-12-29T20:13:08.453Z,6.80
2022-12-29T20:15:36.587Z,6.80
2022-12-29T20:18:14.267Z,6.70
2022-12-29T20:20:43.147Z,6.70
2022-12-29T20:23:11.530Z,6.60
2022-12-29T20:25:47.755Z,6.60
2022-12-29T20:28:17.566Z,6.60
2022-12-29T20:30:45.763Z,6.60
2022-12-29T20:33:13.836Z,6.60
2022-12-29T20:35:41.872Z,6.60
2022-12-29T20:38:09.927Z,6.60
2022-12-29T20:40:45.927Z,6.70
2022-12-29T20:43:16.166Z,6.70
2022-12-29T20:45:46.057Z,6.70
2022-12-29T20:48:14.219Z,6.80
2022-12-29T20:50:42.360Z,6.80
2022-12-29T20:53:11.686Z,6.90
2022-12-29T20:55:41.197Z,7.00
2022-12-29T20:58:25.597Z,7.00
2022-12-29T21:00:56.560Z,7.00
2022-12-29T21:03:25.103Z,7.00
2022-12-29T21:05:53.697Z,7.00
2022-12-29T21:08:22.252Z,7.00
2022-12-29T21:10:51.512Z,7.00
2022-12-29T21:13:20.266Z,7.00
2022-12-29T21:15:48.571Z,7.20
2022-12-29T21:18:18.080Z,7.20
2022-12-29T21:20:46.123Z,7.20
2022-12-29T21:23:14.298Z,7.20
2022-12-29T21:25:45.153Z,7.20
2022-12-29T21:28:13.354Z,7.20
2022-12-29T21:30:41.942Z,7.20
2022-12-29T21:33:10.277Z,7.30
2022-12-29T21:35:40.194Z,7.30
2022-12-29T21:38:08.806Z,7.40
2022-12-29T21:40:38.776Z,7.30
2022-12-29T21:43:07.692Z,7.30
2022-12-29T21:45:34.934Z,7.30
2022-12-29T21:48:24.140Z,7.40
2022-12-29T21:51:13.218Z,7.40
2022-12-29T21:53:42.721Z,7.40
2022-12-29T21:56:13.005Z,7.40
2022-12-29T21:59:01.305Z,7.40
2022-12-29T22:01:49.143Z,7.30
2022-12-29T22:04:36.877Z,7.40
2022-12-29T22:07:24.936Z,7.40
2022-12-29T22:10:11.071Z,7.30
2022-12-29T22:12:57.074Z,7.30
2022-12-29T22:15:25.409Z,7.40
2022-12-29T22:17:55.405Z,7.40
2022-12-29T22:20:26.110Z,7.30
2022-12-29T22:22:55.876Z,7.40
2022-12-29T22:25:24.844Z,7.40
2022-12-29T22:27:58.910Z,7.40
2022-12-29T22:30:28.549Z,7.40
2022-12-29T22:32:58.916Z,7.40
2022-12-29T22:35:27.150Z,7.40
2022-12-29T22:37:56.843Z,7.50
2022-12-29T22:40:25.784Z,7.40
2022-12-29T22:42:54.995Z,7.40
2022-12-29T22:45:23.159Z,7.50
2022-12-29T22:47:51.202Z,7.50
2022-12-29T22:50:19.415Z,7.50
2022-12-29T22:52:47.487Z,7.50
2022-12-29T22:55:17.144Z,7.50
2022-12-29T22:57:45.172Z,7.50
2022-12-29T23:00:13.606Z,7.40
2022-12-29T23:02:42.032Z,7.50
2022-12-29T23:05:11.437Z,7.50
2022-12-29T23:07:39.539Z,7.40
2022-12-29T23:10:08.440Z,7.50
2022-12-29T23:12:37.926Z,7.50
2022-12-29T23:15:07.040Z,7.50
2022-12-29T23:17:35.053Z,7.50
2022-12-29T23:20:03.201Z,7.40
2022-12-29T23:22:31.540Z,7.50
2022-12-29T23:25:00.136Z,7.50
2022-12-29T23:27:28.309Z,7.50
2022-12-29T23:29:57.745Z,7.60
2022-12-29T23:32:25.855Z,7.50
2022-12-29T23:34:53.934Z,7.60
2022-12-29T23:37:21.988Z,7.60
2022-12-29T23:39:50.057Z,7.50
2022-12-29T23:42:18.078Z,7.60
2022-12-29T23:44:46.135Z,7.60
2022-12-29T23:47:15.627Z,7.60
2022-12-29T23:49:43.672Z,7.70
2022-12-29T23:52:11.720Z,7.70
2022-12-29T23:54:39.763Z,7.70
2022-12-29T23:57:07.816Z,7.60
2022-12-29T23:59:35.885Z,7.60
